Time;durP1;ratioP1;P1;durP2;ratioP2;P2;SDS_P1;SDS_P2;PMS_P1;PMS_P2;Temp;Humidity;BMP_temperature;BMP_pressure;BME280_temperature;BME280_humidity;BME280_pressure;Samples;Min_cycle;Max_cycle;Signal;HPM_P1;HPM_P2
2022/05/16 00:00:54;;;;;;;5.50;3.80;;;;;;;13.64;66.22;99481.84;4455384;32;33403;-80
2022/05/16 00:03:24;;;;;;;5.60;3.40;;;;;;;14.11;63.65;99479.09;4465191;32;34729;-80
2022/05/16 00:05:52;;;;;;;7.90;4.15;;;;;;;14.48;62.21;99476.47;4467856;32;35131;-80
2022/05/16 00:08:19;;;;;;;6.22;3.65;;;;;;;13.89;64.84;99483.94;4455388;32;35235;-80
2022/05/16 00:10:48;;;;;;;4.82;3.42;;;;;;;13.99;64.49;99482.84;4470898;32;34335;-81
2022/05/16 00:13:16;;;;;;;8.13;3.95;;;;;;;14.45;62.92;99481.78;4469546;32;33820;-80
2022/05/16 00:15:44;;;;;;;5.20;3.30;;;;;;;14.27;63.49;99480.47;4470889;32;35047;-80
2022/05/16 00:18:12;;;;;;;8.68;3.45;;;;;;;14.10;63.59;99482.59;4461626;32;34976;-80
2022/05/16 00:20:40;;;;;;;4.87;3.53;;;;;;;14.09;62.83;99478.28;4454801;32;33393;-80
2022/05/16 00:23:08;;;;;;;6.70;3.85;;;;;;;14.23;63.35;99482.28;4448302;32;34823;-80
2022/05/16 00:25:36;;;;;;;6.90;3.62;;;;;;;14.36;62.42;99482.00;4428354;32;34566;-80
2022/05/16 00:28:04;;;;;;;6.00;3.62;;;;;;;14.28;62.27;99481.34;4447854;32;34392;-80
2022/05/16 00:30:32;;;;;;;8.57;3.90;;;;;;;13.96;64.54;99483.78;4444319;32;33736;-80
2022/05/16 00:33:00;;;;;;;9.20;3.45;;;;;;;14.00;65.08;99476.72;4449128;32;33625;-80
2022/05/16 00:35:27;;;;;;;8.00;3.45;;;;;;;13.89;62.93;99484.81;4454707;32;34716;-80
2022/05/16 00:37:55;;;;;;;8.57;4.45;;;;;;;14.37;62.93;99488.97;4462557;32;34258;-80
2022/05/16 00:40:23;;;;;;;6.75;3.80;;;;;;;13.66;65.99;99490.56;4456705;32;33486;-80
2022/05/16 00:43:01;;;;;;;6.65;4.22;;;;;;;14.12;64.15;99486.94;4469233;32;34722;-80
2022/05/16 00:45:29;;;;;;;6.22;4.12;;;;;;;14.08;64.38;99489.63;4470632;32;35904;-80
2022/05/16 00:47:57;;;;;;;7.87;4.28;;;;;;;13.88;63.19;99483.09;4467393;32;34256;-80
2022/05/16 00:50:26;;;;;;;6.97;3.85;;;;;;;13.74;64.28;99491.25;4442709;32;32643;-80
2022/05/16 00:52:55;;;;;;;7.85;3.80;;;;;;;13.84;64.97;99489.28;4450220;32;34689;-80
2022/05/16 00:55:33;;;;;;;7.18;4.07;;;;;;;14.46;63.10;99493.97;4455287;32;35083;-80
2022/05/16 00:58:04;;;;;;;4.90;3.42;;;;;;;14.21;63.21;99491.94;4441366;32;34528;-80
2022/05/16 01:00:35;;;;;;;8.50;3.78;;;;;;;14.30;61.91;99484.78;4441158;32;34134;-80
2022/05/16 01:05:54;;;;;;;7.28;3.72;;;;;;;14.47;62.56;99490.47;4454455;32;35009;-80
2022/05/16 01:08:25;;;;;;;5.45;4.05;;;;;;;14.09;62.73;99494.84;4447385;32;34618;-80
2022/05/16 01:10:54;;;;;;;5.50;3.80;;;;;;;14.12;63.85;99494.78;4440664;32;32143;-80
2022/05/16 01:13:24;;;;;;;7.37;4.05;;;;;;;14.28;62.87;99492.66;4440803;32;34052;-80
2022/05/16 01:15:52;;;;;;;8.32;3.90;;;;;;;13.98;63.60;99486.38;4454230;32;35128;-80
2022/05/16 01:18:23;;;;;;;8.23;4.18;;;;;;;14.08;63.40;99490.50;4448391;32;34361;-80
2022/05/16 01:21:11;;;;;;;8.02;3.97;;;;;;;13.99;63.97;99491.59;4440980;32;34178;-80
2022/05/16 01:23:47;;;;;;;9.43;4.05;;;;;;;12.97;67.85;99499.69;4448948;32;33641;-80
2022/05/16 01:26:24;;;;;;;9.45;3.92;;;;;;;13.13;65.45;99495.94;4470269;32;35688;-80
2022/05/16 01:28:54;;;;;;;7.75;4.72;;;;;;;13.95;64.65;99503.00;4456123;32;35263;-80
2022/05/16 01:31:23;;;;;;;7.85;3.58;;;;;;;13.38;65.89;99501.56;4455080;32;33352;-80
2022/05/16 01:33:51;;;;;;;5.45;3.55;;;;;;;14.03;60.68;99508.09;4455094;32;33909;-80
2022/05/16 01:36:19;;;;;;;5.97;3.70;;;;;;;14.22;62.62;99505.87;4456268;32;36121;-80
2022/05/16 01:38:47;;;;;;;8.68;4.05;;;;;;;14.42;58.73;99502.81;4459788;32;34316;-81
2022/05/16 01:41:21;;;;;;;8.32;3.80;;;;;;;14.19;60.46;99506.84;4456110;32;34206;-80
2022/05/16 01:43:55;;;;;;;7.10;3.83;;;;;;;14.37;62.63;99515.16;4455391;32;34722;-80
2022/05/16 01:46:33;;;;;;;7.57;3.87;;;;;;;14.23;63.25;99512.87;4469194;32;35736;-80
2022/05/16 01:49:02;;;;;;;6.75;3.90;;;;;;;14.28;61.79;99511.00;4465343;32;35072;-80
2022/05/16 01:51:30;;;;;;;5.80;3.65;;;;;;;14.52;61.32;99520.03;4470216;32;34287;-80
2022/05/16 01:53:58;;;;;;;7.10;3.53;;;;;;;14.75;61.57;99516.00;4458942;32;34038;-80
2022/05/16 01:56:26;;;;;;;8.55;4.15;;;;;;;15.09;60.88;99509.94;4453348;32;35475;-80
2022/05/16 01:58:54;;;;;;;6.80;3.45;;;;;;;14.15;64.50;99509.53;4463410;32;34612;-80
2022/05/16 02:01:22;;;;;;;6.57;3.55;;;;;;;14.98;61.49;99511.06;4460850;32;33413;-80
2022/05/16 02:03:50;;;;;;;7.87;3.67;;;;;;;14.41;62.94;99515.03;4446072;32;33901;-80
2022/05/16 02:06:18;;;;;;;6.32;3.35;;;;;;;14.36;60.51;99521.28;4440126;32;35028;-80
2022/05/16 02:08:49;;;;;;;6.90;3.25;;;;;;;14.86;58.17;99519.25;4448595;32;34397;-80
2022/05/16 02:11:17;;;;;;;8.75;3.50;;;;;;;15.17;59.44;99521.06;4456491;32;33471;-80
2022/05/16 02:13:46;;;;;;;6.87;3.37;;;;;;;15.05;61.33;99516.97;4468487;32;34921;-80
2022/05/16 02:16:14;;;;;;;9.57;3.75;;;;;;;15.15;57.82;99515.00;4470113;32;35193;-80
2022/05/16 02:18:43;;;;;;;8.50;3.80;;;;;;;15.21;58.82;99520.06;4468682;32;35010;-80
2022/05/16 02:26:47;;;;;;;6.97;3.92;;;;;;;15.77;57.50;99518.56;4453740;32;35834;-80
2022/05/16 02:29:17;;;;;;;6.82;3.78;;;;;;;15.74;57.75;99522.09;4444321;32;34872;-80
2022/05/16 02:31:46;;;;;;;5.53;3.85;;;;;;;15.14;58.71;99524.62;4440561;32;33519;-80
2022/05/16 02:34:15;;;;;;;4.85;3.50;;;;;;;15.31;58.72;99529.41;4437329;32;32878;-81
2022/05/16 02:36:43;;;;;;;6.72;3.50;;;;;;;15.05;59.75;99526.63;4469635;32;35139;-80
2022/05/16 02:39:12;;;;;;;8.07;3.47;;;;;;;15.06;60.12;99528.34;4458500;32;34244;-80
2022/05/16 02:41:41;;;;;;;7.57;3.58;;;;;;;15.33;58.90;99524.12;4454784;32;33598;-81
2022/05/16 02:44:09;;;;;;;6.78;3.58;;;;;;;15.45;57.26;99523.78;4458904;32;33912;-80
2022/05/16 02:46:37;;;;;;;8.52;3.35;;;;;;;15.22;57.97;99527.03;4453975;32;34598;-80
2022/05/16 02:49:05;;;;;;;6.87;3.80;;;;;;;15.14;57.15;99518.50;4462564;32;34363;-80
2022/05/16 02:51:33;;;;;;;11.43;3.30;;;;;;;15.07;57.15;99514.31;4469750;32;33301;-80
2022/05/16 02:54:02;;;;;;;6.53;3.20;;;;;;;15.23;56.61;99520.91;4464514;32;33847;-81
2022/05/16 02:56:30;;;;;;;8.05;3.58;;;;;;;15.43;56.79;99519.50;4451798;32;35803;-82
2022/05/16 02:58:58;;;;;;;11.30;3.05;;;;;;;15.56;55.09;99520.87;4452936;32;33576;-86
2022/05/16 03:01:27;;;;;;;4.87;3.45;;;;;;;15.53;54.02;99510.47;4457338;32;33491;-84
2022/05/16 03:03:55;;;;;;;4.47;3.12;;;;;;;15.69;54.66;99511.75;4448641;32;34752;-85
2022/05/16 03:06:22;;;;;;;7.70;3.53;;;;;;;15.55;55.67;99513.91;4455696;32;35974;-84
2022/05/16 03:08:51;;;;;;;6.43;3.55;;;;;;;15.62;53.70;99515.44;4455196;32;35080;-83
2022/05/16 03:11:18;;;;;;;10.27;3.33;;;;;;;15.68;54.13;99512.63;4455694;32;33412;-80
2022/05/16 03:13:46;;;;;;;7.15;3.05;;;;;;;16.15;53.42;99514.81;4460996;32;33879;-88
2022/05/16 03:16:14;;;;;;;11.00;3.83;;;;;;;16.19;51.76;99515.56;4460655;32;35067;-86
2022/05/16 03:18:43;;;;;;;7.12;3.42;;;;;;;16.37;51.51;99514.97;4456324;32;35009;-84
2022/05/16 03:21:11;;;;;;;8.30;3.30;;;;;;;16.64;49.84;99520.25;4454400;32;34121;-87
2022/05/16 03:23:40;;;;;;;6.10;2.97;;;;;;;16.62;50.99;99514.19;4455122;32;33987;-81
2022/05/16 03:26:09;;;;;;;6.95;3.65;;;;;;;16.83;50.53;99516.13;4455152;32;35844;-80
2022/05/16 03:28:36;;;;;;;8.90;3.17;;;;;;;16.96;50.49;99513.97;4458878;32;34562;-87
2022/05/16 03:31:05;;;;;;;5.82;2.92;;;;;;;16.94;51.10;99509.66;4456848;32;33242;-80
2022/05/16 03:33:32;;;;;;;7.70;3.50;;;;;;;17.01;53.21;99513.78;4457083;32;33954;-85
2022/05/16 03:36:00;;;;;;;6.70;3.58;;;;;;;17.11;50.55;99502.03;4455322;32;35017;-87
2022/05/16 03:41:15;;;;;;;6.07;3.05;;;;;;;17.15;54.96;99522.06;4471137;32;33246;-70
2022/05/16 03:43:44;;;;;;;7.43;3.45;;;;;;;16.87;51.65;99514.25;4464563;32;34861;-72
2022/05/16 03:46:12;;;;;;;11.90;3.55;;;;;;;17.18;53.21;99508.81;4454839;32;35087;-69
2022/05/16 03:48:40;;;;;;;4.72;2.90;;;;;;;16.84;54.12;99515.22;4458843;32;33967;-70
2022/05/16 03:51:10;;;;;;;6.50;3.87;;;;;;;16.94;51.96;99520.16;4462519;32;33533;-69
2022/05/16 03:53:48;;;;;;;6.95;3.78;;;;;;;17.01;52.89;99514.66;4459079;32;34766;-70
2022/05/16 03:56:22;;;;;;;7.12;3.78;;;;;;;17.25;54.65;99526.09;4458324;32;35031;-70
2022/05/16 03:58:49;;;;;;;9.70;3.90;;;;;;;17.13;53.93;99523.03;4450602;32;34463;-70
2022/05/16 04:01:18;;;;;;;7.65;4.37;;;;;;;17.16;56.45;99526.41;4441710;32;33517;-70
2022/05/16 04:03:47;;;;;;;11.85;3.60;;;;;;;17.15;59.19;99524.69;4449812;32;33946;-70
2022/05/16 04:06:15;;;;;;;5.78;3.42;;;;;;;17.55;55.22;99535.59;4440972;32;35181;-71
2022/05/16 04:08:43;;;;;;;6.03;3.30;;;;;;;17.77;48.57;99525.12;4443113;32;34537;-75
2022/05/16 04:11:15;;;;;;;11.15;3.17;;;;;;;17.98;48.63;99532.25;4470300;32;33218;-75
2022/05/16 04:13:46;;;;;;;7.72;2.97;;;;;;;18.02;47.30;99537.41;4465692;32;34665;-74
2022/05/16 04:16:15;;;;;;;10.07;3.92;;;;;;;18.32;46.66;99543.28;4455255;32;35244;-70
2022/05/16 04:18:44;;;;;;;6.78;3.47;;;;;;;18.13;52.78;99540.50;4457929;32;34469;-69
2022/05/16 04:21:13;;;;;;;7.25;3.72;;;;;;;18.20;50.42;99541.97;4470646;32;32897;-77
2022/05/16 04:23:41;;;;;;;5.37;2.78;;;;;;;18.40;45.14;99541.19;4467919;32;33922;-85
2022/05/16 04:26:09;;;;;;;7.65;3.45;;;;;;;18.66;44.80;99544.56;4456615;32;35107;-75
2022/05/16 04:28:37;;;;;;;5.80;2.90;;;;;;;18.55;45.68;99543.22;4452604;32;34483;-70
2022/05/16 04:31:05;;;;;;;5.95;3.15;;;;;;;18.47;44.64;99545.28;4454859;32;34305;-78
2022/05/16 04:33:35;;;;;;;5.62;2.60;;;;;;;18.69;45.56;99545.28;4443177;32;33892;-70
2022/05/16 04:36:03;;;;;;;7.03;3.40;;;;;;;18.41;46.39;99539.41;4443908;32;35911;-70
2022/05/16 04:38:31;;;;;;;5.30;2.67;;;;;;;18.59;43.65;99537.81;4455289;32;34499;-70
2022/05/16 04:43:46;;;;;;;;;;;;;;;18.72;43.74;99547.81;4469402;32;33884;-69
2022/05/16 04:46:13;;;;;;;6.18;2.60;;;;;;;18.24;50.77;99554.09;4458519;32;35198;-69
2022/05/16 04:48:42;;;;;;;6.32;2.50;;;;;;;18.57;45.41;99543.16;4455322;32;34438;-72
2022/05/16 04:51:11;;;;;;;4.80;2.33;;;;;;;18.89;43.68;99547.12;4452478;32;33608;-69
2022/05/16 04:53:39;;;;;;;6.25;2.42;;;;;;;19.40;43.05;99547.62;4448370;32;34597;-69
2022/05/16 04:56:07;;;;;;;6.80;2.70;;;;;;;19.13;46.22;99555.81;4455007;32;35081;-69
2022/05/16 04:58:35;;;;;;;6.05;2.95;;;;;;;19.14;44.66;99560.16;4446894;32;34460;-71
2022/05/16 05:01:03;;;;;;;6.15;2.62;;;;;;;19.67;43.83;99561.38;4456658;32;34256;-70
2022/05/16 05:03:31;;;;;;;4.57;2.50;;;;;;;19.70;41.15;99555.97;4448419;32;33880;-69
2022/05/16 05:06:00;;;;;;;9.43;2.90;;;;;;;19.90;43.05;99554.22;4440876;32;35158;-69
2022/05/16 05:08:27;;;;;;;8.45;2.55;;;;;;;20.85;41.85;99551.50;4440947;32;34481;-70
2022/05/16 05:16:29;;;;;;;9.45;2.65;;;;;;;21.16;40.91;99560.53;4469337;32;35163;-69
2022/05/16 05:18:58;;;;;;;4.03;2.05;;;;;;;20.88;41.58;99563.72;4442615;32;32848;-69
2022/05/16 05:21:27;;;;;;;5.10;1.98;;;;;;;21.15;37.69;99565.00;4463740;32;34453;-69
2022/05/16 05:24:01;;;;;;;5.05;1.83;;;;;;;21.44;38.28;99559.97;4447699;32;33973;-70
2022/05/16 05:26:28;;;;;;;8.60;2.78;;;;;;;21.62;39.45;99571.47;4441048;32;35864;-69
2022/05/16 05:28:56;;;;;;;7.18;2.17;;;;;;;21.75;40.08;99569.84;4447795;32;34385;-70
2022/05/16 05:31:25;;;;;;;6.97;2.47;;;;;;;21.53;37.24;99563.97;4470488;32;34364;-70
2022/05/16 05:33:54;;;;;;;4.43;2.17;;;;;;;21.96;38.75;99564.34;4462146;32;34745;-70
2022/05/16 05:36:22;;;;;;;5.93;2.45;;;;;;;21.20;40.26;99564.78;4453581;32;35842;-70
2022/05/16 05:38:51;;;;;;;6.50;2.60;;;;;;;21.66;37.68;99570.34;4446955;32;34549;-70
2022/05/16 05:41:22;;;;;;;8.85;2.30;;;;;;;22.08;37.96;99565.50;4440361;32;33682;-70
2022/05/16 05:43:50;;;;;;;6.15;2.30;;;;;;;22.33;38.83;99565.87;4421777;32;33607;-69
2022/05/16 05:46:19;;;;;;;9.07;2.33;;;;;;;22.18;35.33;99571.12;4443432;32;34284;-70
2022/05/16 05:48:47;;;;;;;4.40;1.98;;;;;;;22.02;35.70;99574.59;4468957;32;35149;-69
2022/05/16 05:51:15;;;;;;;4.75;2.00;;;;;;;21.76;36.15;99581.34;4470247;32;34394;-69
2022/05/16 05:53:43;;;;;;;7.53;2.30;;;;;;;22.21;36.24;99571.81;4452449;32;33429;-72
2022/05/16 05:56:12;;;;;;;4.93;1.77;;;;;;;22.34;35.25;99583.50;4456060;32;35904;-70
2022/05/16 05:58:40;;;;;;;5.25;2.10;;;;;;;22.49;36.78;99573.81;4454849;32;34459;-73
2022/05/16 06:01:09;;;;;;;3.67;2.00;;;;;;;22.67;33.79;99574.56;4461121;32;33446;-80
2022/05/16 06:03:39;;;;;;;7.93;2.53;;;;;;;22.67;34.80;99571.91;4451799;32;33978;-77
2022/05/16 06:06:07;;;;;;;6.57;2.08;;;;;;;22.08;35.48;99578.75;4453224;32;35009;-77
2022/05/16 06:08:35;;;;;;;5.60;2.00;;;;;;;22.12;34.76;99583.78;4454007;32;34526;-82
2022/05/16 06:11:03;;;;;;;4.47;1.83;;;;;;;22.38;33.42;99573.56;4453206;32;34147;-77
2022/05/16 06:13:32;;;;;;;5.28;2.00;;;;;;;22.18;34.28;99582.59;4457294;32;34022;-73
2022/05/16 06:16:00;;;;;;;6.28;2.10;;;;;;;22.20;35.72;99579.84;4442319;32;35125;-69
2022/05/16 06:18:28;;;;;;;8.43;2.00;;;;;;;22.89;33.94;99579.50;4465374;32;34451;-70
2022/05/16 06:20:56;;;;;;;6.75;1.70;;;;;;;22.96;35.32;99582.69;4454206;32;34232;-69
2022/05/16 06:23:24;;;;;;;4.45;1.85;;;;;;;22.58;34.19;99580.41;4456294;32;33918;-70
2022/05/16 06:25:53;;;;;;;4.10;1.80;;;;;;;22.04;36.19;99586.03;4439213;32;34564;-69
2022/05/16 06:28:25;;;;;;;6.78;2.92;;;;;;;22.72;33.94;99582.28;4453718;32;34409;-70
2022/05/16 06:30:56;;;;;;;3.17;1.80;;;;;;;23.53;31.38;99573.16;4454558;32;34577;-77
2022/05/16 06:33:26;;;;;;;3.97;1.55;;;;;;;23.29;31.89;99571.03;4466181;32;33171;-79
2022/05/16 06:35:54;;;;;;;6.62;1.90;;;;;;;24.23;32.23;99573.28;4453062;32;35876;-71
2022/05/16 06:38:30;;;;;;;4.40;2.08;;;;;;;24.20;31.91;99574.31;4454125;32;34352;-71
2022/05/16 06:41:05;;;;;;;5.40;1.80;;;;;;;24.85;31.74;99569.31;4456535;32;33548;-70
2022/05/16 06:43:34;;;;;;;3.12;1.95;;;;;;;24.88;30.18;99577.09;4440842;32;34574;-70
2022/05/16 06:46:03;;;;;;;3.95;2.50;;;;;;;24.92;28.45;99570.62;4440234;32;33776;-71
2022/05/16 06:48:31;;;;;;;6.90;2.72;;;;;;;24.36;30.99;99579.50;4454322;32;33923;-70
2022/05/16 06:50:59;;;;;;;5.15;1.60;;;;;;;24.28;30.62;99567.66;4466782;32;33350;-71
2022/05/16 06:53:30;;;;;;;3.25;1.90;;;;;;;25.55;29.66;99577.03;4452716;32;33847;-71
2022/05/16 06:56:00;;;;;;;7.47;1.85;;;;;;;25.89;30.14;99577.34;4452795;32;35901;-71
2022/05/16 06:58:28;;;;;;;5.72;2.10;;;;;;;25.74;34.08;99579.28;4448908;32;34470;-70
2022/05/16 07:00:57;;;;;;;8.05;1.98;;;;;;;25.25;30.56;99582.66;4455586;32;33535;-70
2022/05/16 07:03:25;;;;;;;4.40;1.90;;;;;;;24.64;30.63;99577.75;4453047;32;34010;-70
2022/05/16 07:05:55;;;;;;;4.55;1.90;;;;;;;25.31;29.79;99587.59;4453647;32;35888;-71
2022/05/16 07:08:23;;;;;;;4.70;2.20;;;;;;;25.01;29.52;99588.66;4433704;32;34463;-71
2022/05/16 07:10:52;;;;;;;4.68;2.08;;;;;;;24.89;30.93;99581.47;4452512;32;33439;-70
2022/05/16 07:13:24;;;;;;;8.10;2.08;;;;;;;25.41;29.90;99582.47;4452685;32;33940;-70
2022/05/16 07:15:53;;;;;;;6.03;2.37;;;;;;;25.00;29.91;99589.59;4454049;32;35897;-71
2022/05/16 07:18:22;;;;;;;6.47;2.25;;;;;;;25.06;31.43;99589.22;4453716;32;34511;-71
2022/05/16 07:20:51;;;;;;;3.70;1.90;;;;;;;24.95;31.27;99584.59;4440948;32;33610;-71
2022/05/16 07:23:19;;;;;;;5.32;2.58;;;;;;;25.88;32.16;99587.16;4453941;32;33993;-76
2022/05/16 07:28:35;;;;;;;5.95;1.85;;;;;;;26.06;32.47;99594.84;4454213;32;35090;-72
2022/05/16 07:31:04;;;;;;;8.30;2.30;;;;;;;26.04;31.99;99586.12;4453270;32;34233;-78
2022/05/16 07:33:34;;;;;;;5.65;1.65;;;;;;;26.30;28.93;99590.44;4452703;32;33922;-72
2022/05/16 07:36:03;;;;;;;5.50;2.50;;;;;;;26.90;28.37;99579.88;4439313;32;35214;-72
2022/05/16 07:38:31;;;;;;;8.35;2.10;;;;;;;26.72;28.85;99583.91;4451834;32;35145;-72
2022/05/16 07:41:00;;;;;;;4.43;1.90;;;;;;;26.72;28.29;99586.56;4468596;32;34359;-73
2022/05/16 07:43:28;;;;;;;13.18;2.53;;;;;;;26.14;28.97;99587.16;4466163;32;34666;-73
2022/05/16 07:45:56;;;;;;;4.25;2.10;;;;;;;25.94;31.56;99596.56;4453900;32;34943;-75
2022/05/16 07:48:24;;;;;;;9.85;2.20;;;;;;;26.27;30.08;99592.47;4454486;32;35085;-71
2022/05/16 07:50:53;;;;;;;3.45;2.15;;;;;;;27.19;29.41;99595.53;4455230;32;34154;-81
2022/05/16 07:53:21;;;;;;;4.62;2.12;;;;;;;28.34;27.23;99593.75;4455226;32;33936;-73
2022/05/16 07:55:51;;;;;;;3.67;1.87;;;;;;;28.14;25.22;99595.34;4441410;32;34639;-74
2022/05/16 07:58:20;;;;;;;7.95;2.00;;;;;;;27.20;28.48;99586.56;4454969;32;34548;-71
2022/05/16 08:00:54;;;;;;;8.13;2.20;;;;;;;28.03;26.53;99590.88;4438611;32;33309;-71
2022/05/16 08:03:25;;;;;;;4.75;1.90;;;;;;;27.87;27.79;99588.53;4453052;32;33857;-71
2022/05/16 08:05:54;;;;;;;4.85;1.65;;;;;;;27.26;27.44;99596.75;4456029;32;34278;-71
2022/05/16 08:11:12;;;;;;;4.62;1.90;;;;;;;27.12;28.12;99589.78;4443929;32;34526;-71
2022/05/16 08:13:42;;;;;;;5.65;2.15;;;;;;;28.12;26.89;99586.59;4454846;32;33908;-72
2022/05/16 08:16:10;;;;;;;5.55;1.90;;;;;;;29.14;26.17;99595.25;4454199;32;34928;-73
2022/05/16 08:18:39;;;;;;;13.23;1.95;;;;;;;28.32;25.78;99590.34;4444680;32;34962;-75
2022/05/16 08:21:08;;;;;;;6.78;1.80;;;;;;;27.90;25.78;99590.09;4453974;32;34424;-74
2022/05/16 08:23:37;;;;;;;7.43;2.05;;;;;;;28.61;26.83;99593.38;4454448;32;34800;-75
2022/05/16 08:26:05;;;;;;;7.03;2.65;;;;;;;29.41;23.14;99592.06;4454846;32;35069;-74
2022/05/16 08:28:34;;;;;;;5.50;2.40;;;;;;;28.63;26.31;99582.53;4454605;32;34368;-73
2022/05/16 08:31:02;;;;;;;4.28;2.12;;;;;;;29.77;23.96;99595.31;4456446;32;32911;-70
2022/05/16 08:33:33;;;;;;;6.60;2.55;;;;;;;28.33;25.13;99592.06;4469213;32;34043;-73
2022/05/16 08:42:02;;;;;;;6.00;2.00;;;;;;;28.71;23.95;99590.78;4454843;32;33237;-74
2022/05/16 08:44:59;;;;;;;4.68;2.08;;;;;;;28.58;26.98;99590.09;4453449;32;33716;-73
2022/05/16 08:47:53;;;;;;;5.55;2.15;;;;;;;28.65;25.12;99597.50;4456664;32;35025;-72
2022/05/16 08:50:43;;;;;;;4.37;2.30;;;;;;;28.04;25.26;99581.84;4455238;32;34327;-72
2022/05/16 08:53:47;;;;;;;4.82;2.00;;;;;;;28.66;25.69;99582.25;4456629;32;33446;-72
2022/05/16 08:56:25;;;;;;;6.47;2.10;;;;;;;29.42;24.69;99585.75;4431178;32;33880;-73
2022/05/16 08:59:03;;;;;;;6.85;2.37;;;;;;;29.38;23.67;99594.16;4441048;32;35007;-73
2022/05/16 09:01:37;;;;;;;5.05;1.85;;;;;;;28.83;24.96;99595.13;4470332;32;35082;-72
2022/05/16 09:04:14;;;;;;;5.03;2.00;;;;;;;29.23;24.11;99585.62;4454146;32;33541;-73
2022/05/16 09:07:01;;;;;;;6.43;2.03;;;;;;;28.35;24.87;99590.09;4453838;32;34709;-74
2022/05/16 09:09:50;;;;;;;3.58;2.03;;;;;;;28.29;24.63;99591.47;4455638;32;35918;-73
2022/05/16 09:12:25;;;;;;;4.22;2.10;;;;;;;27.36;28.07;99592.44;4450115;32;35265;-72
2022/05/16 09:15:05;;;;;;;8.48;2.72;;;;;;;28.05;25.59;99594.25;4446630;32;34778;-72
2022/05/16 09:17:55;;;;;;;5.12;2.10;;;;;;;27.79;25.77;99578.41;4455490;32;33888;-73
2022/05/16 09:21:00;;;;;;;2.92;1.73;;;;;;;27.14;28.26;99587.00;4467757;32;35251;-72
2022/05/16 09:23:49;;;;;;;4.28;2.20;;;;;;;28.11;27.57;99577.72;4442543;32;34516;-72
2022/05/16 09:26:32;;;;;;;4.12;2.12;;;;;;;29.25;27.36;99578.28;4440687;32;33723;-72
2022/05/16 09:29:42;;;;;;;7.47;2.20;;;;;;;29.27;24.71;99579.00;4439879;32;34033;-75
2022/05/16 09:32:14;;;;;;;4.22;2.20;;;;;;;29.14;23.84;99565.75;4394036;32;34870;-73
2022/05/16 09:34:43;;;;;;;3.92;2.08;;;;;;;30.21;23.65;99566.37;4401424;32;34458;-72
2022/05/16 09:37:11;;;;;;;10.27;2.33;;;;;;;29.84;22.94;99558.00;4426040;32;33521;-72
2022/05/16 09:39:49;;;;;;;3.90;2.13;;;;;;;29.61;24.53;99568.88;4463033;32;34729;-73
2022/05/16 09:42:26;;;;;;;7.30;2.05;;;;;;;30.00;24.14;99568.25;4453549;32;35034;-76
2022/05/16 09:44:54;;;;;;;3.78;2.10;;;;;;;29.85;26.63;99563.25;4449854;32;35219;-75
2022/05/16 09:47:26;;;;;;;3.58;1.75;;;;;;;30.36;23.04;99563.31;4453983;32;33454;-73
2022/05/16 09:50:14;;;;;;;5.07;2.25;;;;;;;30.58;23.33;99559.50;4457576;32;33863;-78
2022/05/16 09:53:02;;;;;;;4.95;2.10;;;;;;;31.17;21.72;99555.03;4454032;32;34635;-73
2022/05/16 09:56:03;;;;;;;8.70;2.55;;;;;;;31.16;24.33;99558.69;4462157;32;34237;-74
2022/05/16 09:58:34;;;;;;;5.87;2.70;;;;;;;31.00;23.51;99556.59;4470243;32;34440;-73
2022/05/16 10:01:07;;;;;;;7.12;2.20;;;;;;;31.39;22.04;99548.47;4456615;32;34049;-74
2022/05/16 10:03:49;;;;;;;3.15;1.90;;;;;;;30.91;22.77;99546.66;4452999;32;35149;-73
2022/05/16 10:06:34;;;;;;;8.43;2.33;;;;;;;31.24;21.50;99541.81;4467812;32;35306;-73
2022/05/16 10:09:16;;;;;;;8.43;2.58;;;;;;;30.17;25.02;99534.53;4455247;32;33551;-73
2022/05/16 10:11:48;;;;;;;6.35;2.42;;;;;;;30.10;24.42;99541.44;4453335;32;34710;-73
2022/05/16 10:14:18;;;;;;;13.20;2.78;;;;;;;28.77;25.27;99536.69;4440285;32;35029;-73
2022/05/16 10:16:49;;;;;;;6.00;2.40;;;;;;;29.26;25.87;99539.72;4453148;32;33657;-73
2022/05/16 10:19:28;;;;;;;5.30;2.00;;;;;;;28.81;27.23;99540.78;4440516;32;33534;-73
2022/05/16 10:22:03;;;;;;;6.07;2.60;;;;;;;28.79;25.98;99533.88;4455734;32;33226;-73
2022/05/16 10:24:35;;;;;;;5.13;2.30;;;;;;;29.67;23.90;99536.16;4447470;32;186635;-73
2022/05/16 10:27:06;;;;;;;6.15;2.35;;;;;;;28.32;26.81;99537.63;4453404;32;33691;-78
2022/05/16 10:29:38;;;;;;;3.90;2.30;;;;;;;28.71;25.78;99534.50;4454499;32;33454;-74
2022/05/16 10:35:13;;;;;;;4.37;2.45;;;;;;;28.92;26.52;99535.41;4446009;32;35156;-73
2022/05/16 10:37:44;;;;;;;5.55;2.47;;;;;;;29.84;23.98;99528.47;4455768;32;34381;-72
2022/05/16 10:40:30;;;;;;;11.15;2.70;;;;;;;29.75;23.64;99532.81;4450346;32;33544;-73
2022/05/16 10:43:13;;;;;;;8.75;4.05;;;;;;;29.79;24.16;99534.28;4454141;32;34884;-73
2022/05/16 10:45:47;;;;;;;8.73;2.58;;;;;;;30.67;22.85;99529.09;4453454;32;35968;-73
2022/05/16 10:48:29;;;;;;;4.87;2.40;;;;;;;30.98;23.80;99527.16;4446999;32;34446;-73
2022/05/16 10:51:20;;;;;;;9.27;2.67;;;;;;;30.90;23.28;99523.44;4459825;32;33778;-72
2022/05/16 10:54:10;;;;;;;4.93;2.42;;;;;;;31.67;21.54;99521.63;4453821;32;33896;-72
2022/05/16 10:56:50;;;;;;;5.72;2.30;;;;;;;30.73;23.15;99516.97;4441674;32;36000;-73
2022/05/16 10:59:43;;;;;;;4.32;2.45;;;;;;;30.86;23.87;99514.81;4453156;32;34398;-76
2022/05/16 11:02:38;;;;;;;5.47;2.50;;;;;;;31.00;24.30;99513.56;4453158;32;33380;-76
2022/05/16 11:05:15;;;;;;;5.00;2.42;;;;;;;31.30;23.96;99515.19;4441219;32;32511;-77
2022/05/16 11:08:03;;;;;;;3.83;2.05;;;;;;;31.58;22.52;99509.91;4469081;32;35925;-76
2022/05/16 11:10:46;;;;;;;9.40;2.97;;;;;;;30.60;25.42;99501.97;4453974;32;34339;-73
2022/05/16 11:13:35;;;;;;;5.62;2.10;;;;;;;30.61;25.66;99503.63;4468966;32;33643;-72
2022/05/16 11:16:10;;;;;;;6.32;2.20;;;;;;;30.86;23.38;99503.22;4461168;32;33763;-74
2022/05/16 11:18:57;;;;;;;5.03;2.47;;;;;;;30.54;23.52;99504.34;4442120;32;35132;-72
2022/05/16 11:21:46;;;;;;;10.75;2.97;;;;;;;31.18;23.11;99509.16;4447784;32;34510;-71
2022/05/16 11:24:32;;;;;;;8.45;2.72;;;;;;;29.62;23.88;99506.19;4456843;32;33429;-77
2022/05/16 11:27:01;;;;;;;4.00;2.60;;;;;;;30.96;24.72;99496.88;4455145;32;34710;-72
2022/05/16 11:29:49;;;;;;;6.65;2.58;;;;;;;30.22;24.08;99500.06;4455050;32;35157;-71
2022/05/16 11:32:26;;;;;;;4.75;2.75;;;;;;;29.38;26.77;99489.56;4455368;32;35394;-72
2022/05/16 11:35:08;;;;;;;7.32;2.70;;;;;;;29.62;25.75;99490.09;4454983;32;34422;-73
2022/05/16 11:37:45;;;;;;;7.12;2.92;;;;;;;30.21;28.00;99487.59;4448071;32;34465;-71
2022/05/16 11:40:32;;;;;;;4.55;2.37;;;;;;;29.74;26.96;99481.91;4456862;32;35854;-71
2022/05/16 11:43:08;;;;;;;5.85;3.22;;;;;;;31.52;25.37;99481.75;4471014;32;34609;-72
2022/05/16 11:46:07;;;;;;;5.90;3.28;;;;;;;31.32;24.68;99477.38;4469512;32;33655;-71
2022/05/16 11:48:44;;;;;;;7.68;2.83;;;;;;;31.08;24.57;99470.66;4471068;32;34701;-71
2022/05/16 11:51:43;;;;;;;5.70;2.60;;;;;;;30.34;29.46;99480.16;4469342;32;34732;-72
2022/05/16 11:54:14;;;;;;;5.47;2.62;;;;;;;30.74;24.44;99465.75;4449453;32;33084;-71
2022/05/16 12:02:30;;;;;;;7.78;3.10;;;;;;;29.94;24.56;99464.09;4470943;32;34768;-71
2022/05/16 12:05:01;;;;;;;5.85;2.50;;;;;;;30.22;25.93;99459.75;4469850;32;35072;-71
2022/05/16 12:07:31;;;;;;;8.23;2.45;;;;;;;30.95;26.78;99459.34;4455385;32;33456;-71
2022/05/16 12:10:02;;;;;;;6.87;2.58;;;;;;;31.14;28.34;99455.78;4440077;32;35180;-69
2022/05/16 12:12:40;;;;;;;4.32;2.90;;;;;;;32.06;25.86;99451.44;4441689;32;35258;-72
2022/05/16 12:15:16;;;;;;;4.70;2.85;;;;;;;31.59;23.98;99444.31;4440773;32;33590;-71
2022/05/16 12:17:55;;;;;;;7.30;3.50;;;;;;;30.79;26.66;99444.63;4467748;32;33442;-70
2022/05/16 12:20:48;;;;;;;3.58;2.28;;;;;;;30.74;27.53;99444.25;4456619;32;33856;-71
2022/05/16 12:23:52;;;;;;;6.05;2.67;;;;;;;30.98;25.54;99438.41;4459273;32;34941;-70
2022/05/16 12:26:27;;;;;;;8.77;2.60;;;;;;;31.49;25.27;99438.97;4457158;32;34619;-71
2022/05/16 12:29:08;;;;;;;8.02;2.75;;;;;;;31.89;23.64;99421.63;4470736;32;34241;-70
2022/05/16 12:31:43;;;;;;;4.55;2.30;;;;;;;31.24;25.70;99428.84;4469027;32;34037;-71
2022/05/16 12:34:13;;;;;;;7.30;3.42;;;;;;;31.45;25.32;99426.78;4464911;32;35178;-72
2022/05/16 12:36:41;;;;;;;8.15;2.85;;;;;;;31.43;23.38;99420.72;4455575;32;33535;-72
2022/05/16 12:39:21;;;;;;;5.32;2.42;;;;;;;30.78;25.39;99413.38;4455351;32;33495;-71